sensor_id;sensor_type;location;lat;lon;timestamp;temperature;humidity
8676;DHT22;4375;52.486;13.424;2024-02-04T00:00:49;8.60;99.90
8676;DHT22;4375;52.486;13.424;2024-02-04T00:03:14;8.50;99.90
8676;DHT22;4375;52.486;13.424;2024-02-04T00:05:40;8.50;99.90
8676;DHT22;4375;52.486;13.424;2024-02-04T00:08:06;8.40;99.90
8676;DHT22;4375;52.486;13.424;2024-02-04T00:10:31;8.40;99.90
8676;DHT22;4375;52.486;13.424;2024-02-04T00:12:57;8.40;99.90
8676;DHT22;4375;52.486;13.424;2024-02-04T00:15:23;8.40;99.90
8676;DHT22;4375;52.486;13.424;2024-02-04T00:17:48;8.40;99.90
8676;DHT22;4375;52.486;13.424;2024-02-04T00:20:14;8.40;99.90
8676;DHT22;4375;52.486;13.424;2024-02-04T00:22:40;8.50;99.90
8676;DHT22;4375;52.486;13.424;2024-02-04T00:25:05;8.40;99.90
8676;DHT22;4375;52.486;13.424;2024-02-04T00:27:32;8.40;99.90
8676;DHT22;4375;52.486;13.424;2024-02-04T00:29:58;8.50;99.90
8676;DHT22;4375;52.486;13.424;2024-02-04T00:32:24;8.40;99.90
8676;DHT22;4375;52.486;13.424;2024-02-04T00:34:50;8.50;99.90
8676;DHT22;4375;52.486;13.424;2024-02-04T00:37:15;8.50;99.90
8676;DHT22;4375;52.486;13.424;2024-02-04T00:39:41;8.50;99.90
8676;DHT22;4375;52.486;13.424;2024-02-04T00:42:07;8.40;99.90
8676;DHT22;4375;52.486;13.424;2024-02-04T00:44:32;8.40;99.90
8676;DHT22;4375;52.486;13.424;2024-02-04T00:46:58;8.30;99.90
8676;DHT22;4375;52.486;13.424;2024-02-04T00:49:24;8.30;99.90
8676;DHT22;4375;52.486;13.424;2024-02-04T00:51:51;8.20;99.90
8676;DHT22;4375;52.486;13.424;2024-02-04T00:54:17;8.10;99.90
8676;DHT22;4375;52.486;13.424;2024-02-04T00:56:43;8.10;99.90
8676;DHT22;4375;52.486;13.424;2024-02-04T00:59:08;8.00;99.90
8676;DHT22;4375;52.486;13.424;2024-02-04T01:01:34;8.00;99.90
8676;DHT22;4375;52.486;13.424;2024-02-04T01:03:59;8.00;99.90
8676;DHT22;4375;52.486;13.424;2024-02-04T01:06:25;7.90;99.90
8676;DHT22;4375;52.486;13.424;2024-02-04T01:08:51;7.80;99.90
8676;DHT22;4375;52.486;13.424;2024-02-04T01:11:16;7.80;99.90
8676;DHT22;4375;52.486;13.424;2024-02-04T01:13:42;7.70;99.90
8676;DHT22;4375;52.486;13.424;2024-02-04T01:16:08;7.70;99.90
8676;DHT22;4375;52.486;13.424;2024-02-04T01:18:33;7.70;99.90
8676;DHT22;4375;52.486;13.424;2024-02-04T01:20:59;7.70;99.90
8676;DHT22;4375;52.486;13.424;2024-02-04T01:23:26;7.60;99.90
8676;DHT22;4375;52.486;13.424;2024-02-04T01:25:51;7.50;99.90
8676;DHT22;4375;52.486;13.424;2024-02-04T01:28:17;7.50;99.90
8676;DHT22;4375;52.486;13.424;2024-02-04T01:30:42;7.50;99.90
8676;DHT22;4375;52.486;13.424;2024-02-04T01:33:08;7.50;99.90
8676;DHT22;4375;52.486;13.424;2024-02-04T01:35:34;7.50;99.90
8676;DHT22;4375;52.486;13.424;2024-02-04T01:37:59;7.40;99.90
8676;DHT22;4375;52.486;13.424;2024-02-04T01:40:25;7.50;99.90
8676;DHT22;4375;52.486;13.424;2024-02-04T01:42:51;7.60;99.90
8676;DHT22;4375;52.486;13.424;2024-02-04T01:45:17;7.50;99.90
8676;DHT22;4375;52.486;13.424;2024-02-04T01:47:42;7.50;99.90
8676;DHT22;4375;52.486;13.424;2024-02-04T01:50:09;7.40;99.90
8676;DHT22;4375;52.486;13.424;2024-02-04T01:52:36;7.40;99.90
8676;DHT22;4375;52.486;13.424;2024-02-04T01:55:05;7.40;99.90
8676;DHT22;4375;52.486;13.424;2024-02-04T01:57:32;7.40;99.90
8676;DHT22;4375;52.486;13.424;2024-02-04T02:00:00;7.30;99.90
8676;DHT22;4375;52.486;13.424;2024-02-04T02:02:26;7.20;99.90
8676;DHT22;4375;52.486;13.424;2024-02-04T02:04:51;7.20;99.90
8676;DHT22;4375;52.486;13.424;2024-02-04T02:07:18;7.20;99.90
8676;DHT22;4375;52.486;13.424;2024-02-04T02:09:46;7.20;99.90
8676;DHT22;4375;52.486;13.424;2024-02-04T02:12:43;7.10;99.90
8676;DHT22;4375;52.486;13.424;2024-02-04T02:15:30;7.20;99.90
8676;DHT22;4375;52.486;13.424;2024-02-04T02:23:40;7.20;99.90
8676;DHT22;4375;52.486;13.424;2024-02-04T02:26:08;7.20;99.90
8676;DHT22;4375;52.486;13.424;2024-02-04T02:28:34;7.20;99.90
8676;DHT22;4375;52.486;13.424;2024-02-04T02:31:00;7.10;99.90
8676;DHT22;4375;52.486;13.424;2024-02-04T02:33:26;7.10;99.90
8676;DHT22;4375;52.486;13.424;2024-02-04T02:35:56;7.10;99.90
8676;DHT22;4375;52.486;13.424;2024-02-04T02:41:09;7.10;99.90
8676;DHT22;4375;52.486;13.424;2024-02-04T02:43:35;7.00;99.90
8676;DHT22;4375;52.486;13.424;2024-02-04T02:46:05;7.00;99.90
8676;DHT22;4375;52.486;13.424;2024-02-04T02:48:30;7.00;99.90
8676;DHT22;4375;52.486;13.424;2024-02-04T02:50:56;7.00;99.90
8676;DHT22;4375;52.486;13.424;2024-02-04T02:53:22;7.00;99.90
8676;DHT22;4375;52.486;13.424;2024-02-04T02:55:47;7.00;99.90
8676;DHT22;4375;52.486;13.424;2024-02-04T02:58:14;7.00;99.90
8676;DHT22;4375;52.486;13.424;2024-02-04T03:00:39;7.00;99.90
8676;DHT22;4375;52.486;13.424;2024-02-04T03:03:05;7.00;99.90
8676;DHT22;4375;52.486;13.424;2024-02-04T03:05:31;7.00;99.90
8676;DHT22;4375;52.486;13.424;2024-02-04T03:07:57;7.00;99.90
8676;DHT22;4375;52.486;13.424;2024-02-04T03:10:22;7.00;99.90
8676;DHT22;4375;52.486;13.424;2024-02-04T03:12:48;7.10;99.90
8676;DHT22;4375;52.486;13.424;2024-02-04T03:15:13;7.10;99.90
8676;DHT22;4375;52.486;13.424;2024-02-04T03:17:39;7.20;99.90
8676;DHT22;4375;52.486;13.424;2024-02-04T03:20:05;7.30;99.90
8676;DHT22;4375;52.486;13.424;2024-02-04T03:22:31;7.30;99.90
8676;DHT22;4375;52.486;13.424;2024-02-04T03:24:56;7.40;99.90
8676;DHT22;4375;52.486;13.424;2024-02-04T03:27:22;7.30;99.90
8676;DHT22;4375;52.486;13.424;2024-02-04T03:29:47;7.40;99.90
8676;DHT22;4375;52.486;13.424;2024-02-04T03:32:13;7.40;99.90
8676;DHT22;4375;52.486;13.424;2024-02-04T03:34:41;7.40;99.90
8676;DHT22;4375;52.486;13.424;2024-02-04T03:37:07;7.40;99.90
8676;DHT22;4375;52.486;13.424;2024-02-04T03:39:33;7.50;99.90
8676;DHT22;4375;52.486;13.424;2024-02-04T03:41:58;7.50;99.90
8676;DHT22;4375;52.486;13.424;2024-02-04T03:44:24;7.50;99.90
8676;DHT22;4375;52.486;13.424;2024-02-04T03:46:50;7.50;99.90
8676;DHT22;4375;52.486;13.424;2024-02-04T03:49:16;7.50;99.90
8676;DHT22;4375;52.486;13.424;2024-02-04T03:51:42;7.50;99.90
8676;DHT22;4375;52.486;13.424;2024-02-04T03:54:07;7.50;99.90
8676;DHT22;4375;52.486;13.424;2024-02-04T03:56:33;7.50;99.90
8676;DHT22;4375;52.486;13.424;2024-02-04T03:58:59;7.50;99.90
8676;DHT22;4375;52.486;13.424;2024-02-04T04:01:24;7.50;99.90
8676;DHT22;4375;52.486;13.424;2024-02-04T04:03:50;7.50;99.90
8676;DHT22;4375;52.486;13.424;2024-02-04T04:06:15;7.50;99.90
8676;DHT22;4375;52.486;13.424;2024-02-04T04:08:41;7.50;99.90
8676;DHT22;4375;52.486;13.424;2024-02-04T04:11:10;7.50;99.90
8676;DHT22;4375;52.486;13.424;2024-02-04T04:13:37;7.40;99.90
8676;DHT22;4375;52.486;13.424;2024-02-04T04:16:03;7.40;99.90
8676;DHT22;4375;52.486;13.424;2024-02-04T04:18:29;7.30;99.90
8676;DHT22;4375;52.486;13.424;2024-02-04T04:20:55;7.30;99.90
8676;DHT22;4375;52.486;13.424;2024-02-04T04:23:21;7.20;99.90
8676;DHT22;4375;52.486;13.424;2024-02-04T04:25:46;7.10;99.90
8676;DHT22;4375;52.486;13.424;2024-02-04T04:28:12;7.10;99.90
8676;DHT22;4375;52.486;13.424;2024-02-04T04:30:38;7.10;99.90
8676;DHT22;4375;52.486;13.424;2024-02-04T04:33:03;7.10;99.90
8676;DHT22;4375;52.486;13.424;2024-02-04T04:35:29;7.20;99.90
8676;DHT22;4375;52.486;13.424;2024-02-04T04:37:54;7.10;99.90
8676;DHT22;4375;52.486;13.424;2024-02-04T04:40:20;7.10;99.90
8676;DHT22;4375;52.486;13.424;2024-02-04T04:42:46;7.00;99.90
8676;DHT22;4375;52.486;13.424;2024-02-04T04:45:11;7.00;99.90
8676;DHT22;4375;52.486;13.424;2024-02-04T04:47:37;7.00;99.90
8676;DHT22;4375;52.486;13.424;2024-02-04T04:50:04;7.00;99.90
8676;DHT22;4375;52.486;13.424;2024-02-04T04:52:31;7.00;99.90
8676;DHT22;4375;52.486;13.424;2024-02-04T04:54:56;7.00;99.90
8676;DHT22;4375;52.486;13.424;2024-02-04T04:57:22;7.00;99.90
8676;DHT22;4375;52.486;13.424;2024-02-04T04:59:48;6.90;99.90
8676;DHT22;4375;52.486;13.424;2024-02-04T05:02:13;6.80;99.90
8676;DHT22;4375;52.486;13.424;2024-02-04T05:04:42;6.90;99.90
8676;DHT22;4375;52.486;13.424;2024-02-04T05:07:09;6.90;99.90
8676;DHT22;4375;52.486;13.424;2024-02-04T05:09:34;6.80;99.90
8676;DHT22;4375;52.486;13.424;2024-02-04T05:12:00;6.80;99.90
8676;DHT22;4375;52.486;13.424;2024-02-04T05:14:25;6.80;99.90
8676;DHT22;4375;52.486;13.424;2024-02-04T05:16:51;6.80;99.90
8676;DHT22;4375;52.486;13.424;2024-02-04T05:19:16;6.80;99.90
8676;DHT22;4375;52.486;13.424;2024-02-04T05:21:42;6.70;99.90
8676;DHT22;4375;52.486;13.424;2024-02-04T05:24:08;6.70;99.90
8676;DHT22;4375;52.486;13.424;2024-02-04T05:26:33;6.70;99.90
8676;DHT22;4375;52.486;13.424;2024-02-04T05:28:59;6.70;99.90
8676;DHT22;4375;52.486;13.424;2024-02-04T05:31:24;6.70;99.90
8676;DHT22;4375;52.486;13.424;2024-02-04T05:33:51;6.70;99.90
8676;DHT22;4375;52.486;13.424;2024-02-04T05:36:17;6.60;99.90
8676;DHT22;4375;52.486;13.424;2024-02-04T05:38:45;6.70;99.90
8676;DHT22;4375;52.486;13.424;2024-02-04T05:41:10;6.70;99.90
8676;DHT22;4375;52.486;13.424;2024-02-04T05:43:36;6.60;99.90
8676;DHT22;4375;52.486;13.424;2024-02-04T05:46:02;6.60;99.90
8676;DHT22;4375;52.486;13.424;2024-02-04T05:48:28;6.60;99.90
8676;DHT22;4375;52.486;13.424;2024-02-04T05:50:53;6.60;99.90
8676;DHT22;4375;52.486;13.424;2024-02-04T05:53:19;6.60;99.90
8676;DHT22;4375;52.486;13.424;2024-02-04T05:55:46;6.70;99.90
8676;DHT22;4375;52.486;13.424;2024-02-04T05:58:12;6.60;99.90
8676;DHT22;4375;52.486;13.424;2024-02-04T06:00:39;6.60;99.90
8676;DHT22;4375;52.486;13.424;2024-02-04T06:03:05;6.70;99.90
8676;DHT22;4375;52.486;13.424;2024-02-04T06:05:30;6.70;99.90
8676;DHT22;4375;52.486;13.424;2024-02-04T06:07:56;6.70;99.90
8676;DHT22;4375;52.486;13.424;2024-02-04T06:10:22;6.70;99.90
8676;DHT22;4375;52.486;13.424;2024-02-04T06:12:47;6.70;99.90
8676;DHT22;4375;52.486;13.424;2024-02-04T06:15:14;6.80;99.90
8676;DHT22;4375;52.486;13.424;2024-02-04T06:17:40;6.80;99.90
8676;DHT22;4375;52.486;13.424;2024-02-04T06:20:06;6.80;99.90
8676;DHT22;4375;52.486;13.424;2024-02-04T06:22:33;6.80;99.90
8676;DHT22;4375;52.486;13.424;2024-02-04T06:24:59;6.80;99.90
8676;DHT22;4375;52.486;13.424;2024-02-04T06:27:24;6.80;99.90
8676;DHT22;4375;52.486;13.424;2024-02-04T06:29:50;6.80;99.90
8676;DHT22;4375;52.486;13.424;2024-02-04T06:32:16;6.90;99.90
8676;DHT22;4375;52.486;13.424;2024-02-04T06:34:45;6.90;99.90
8676;DHT22;4375;52.486;13.424;2024-02-04T06:37:11;7.00;99.90
8676;DHT22;4375;52.486;13.424;2024-02-04T06:39:37;6.90;99.90
8676;DHT22;4375;52.486;13.424;2024-02-04T06:42:03;6.80;99.90
8676;DHT22;4375;52.486;13.424;2024-02-04T06:44:28;6.90;99.90
8676;DHT22;4375;52.486;13.424;2024-02-04T06:46:54;6.90;99.90
8676;DHT22;4375;52.486;13.424;2024-02-04T06:49:20;6.90;99.90
8676;DHT22;4375;52.486;13.424;2024-02-04T06:51:45;6.90;99.90
8676;DHT22;4375;52.486;13.424;2024-02-04T06:54:12;6.90;99.90
8676;DHT22;4375;52.486;13.424;2024-02-04T06:56:38;6.90;99.90
8676;DHT22;4375;52.486;13.424;2024-02-04T06:59:03;6.90;99.90
8676;DHT22;4375;52.486;13.424;2024-02-04T07:01:29;6.90;99.90
8676;DHT22;4375;52.486;13.424;2024-02-04T07:03:55;6.80;99.90
8676;DHT22;4375;52.486;13.424;2024-02-04T07:06:20;6.90;99.90
8676;DHT22;4375;52.486;13.424;2024-02-04T07:08:46;6.90;99.90
8676;DHT22;4375;52.486;13.424;2024-02-04T07:11:12;6.90;99.90
8676;DHT22;4375;52.486;13.424;2024-02-04T07:13:37;7.00;99.90
8676;DHT22;4375;52.486;13.424;2024-02-04T07:16:03;6.90;99.90
8676;DHT22;4375;52.486;13.424;2024-02-04T07:18:29;6.90;99.90
8676;DHT22;4375;52.486;13.424;2024-02-04T07:20:54;7.00;99.90
8676;DHT22;4375;52.486;13.424;2024-02-04T07:23:20;6.90;99.90
8676;DHT22;4375;52.486;13.424;2024-02-04T07:25:47;7.00;99.90
8676;DHT22;4375;52.486;13.424;2024-02-04T07:28:12;7.00;99.90
8676;DHT22;4375;52.486;13.424;2024-02-04T07:30:38;7.00;99.90
8676;DHT22;4375;52.486;13.424;2024-02-04T07:33:04;7.10;99.90
8676;DHT22;4375;52.486;13.424;2024-02-04T07:35:29;7.10;99.90
8676;DHT22;4375;52.486;13.424;2024-02-04T07:37:55;7.10;99.90
8676;DHT22;4375;52.486;13.424;2024-02-04T07:40:21;7.10;99.90
8676;DHT22;4375;52.486;13.424;2024-02-04T07:42:46;7.10;99.90
8676;DHT22;4375;52.486;13.424;2024-02-04T07:45:12;7.20;99.90
8676;DHT22;4375;52.486;13.424;2024-02-04T07:47:38;7.20;99.90
8676;DHT22;4375;52.486;13.424;2024-02-04T07:50:03;7.20;99.90
8676;DHT22;4375;52.486;13.424;2024-02-04T07:52:29;7.20;99.90
8676;DHT22;4375;52.486;13.424;2024-02-04T07:54:55;7.30;99.90
8676;DHT22;4375;52.486;13.424;2024-02-04T07:57:20;7.30;99.90
8676;DHT22;4375;52.486;13.424;2024-02-04T07:59:46;7.40;99.90
8676;DHT22;4375;52.486;13.424;2024-02-04T08:02:12;7.40;99.90
8676;DHT22;4375;52.486;13.424;2024-02-04T08:04:40;7.40;99.90
8676;DHT22;4375;52.486;13.424;2024-02-04T08:07:06;7.40;99.90
8676;DHT22;4375;52.486;13.424;2024-02-04T08:09:32;7.50;99.90
8676;DHT22;4375;52.486;13.424;2024-02-04T08:11:58;7.40;99.90
8676;DHT22;4375;52.486;13.424;2024-02-04T08:14:23;7.40;99.90
8676;DHT22;4375;52.486;13.424;2024-02-04T08:16:49;7.50;99.90
8676;DHT22;4375;52.486;13.424;2024-02-04T08:19:15;7.60;99.90
8676;DHT22;4375;52.486;13.424;2024-02-04T08:21:40;7.60;99.90
8676;DHT22;4375;52.486;13.424;2024-02-04T08:24:06;7.60;99.90
8676;DHT22;4375;52.486;13.424;2024-02-04T08:26:32;7.70;99.90
8676;DHT22;4375;52.486;13.424;2024-02-04T08:28:57;7.80;99.90
8676;DHT22;4375;52.486;13.424;2024-02-04T08:31:23;7.80;99.90
8676;DHT22;4375;52.486;13.424;2024-02-04T08:33:49;7.80;99.90
8676;DHT22;4375;52.486;13.424;2024-02-04T08:36:14;7.80;99.90
8676;DHT22;4375;52.486;13.424;2024-02-04T08:38:41;7.80;99.90
8676;DHT22;4375;52.486;13.424;2024-02-04T08:41:07;7.90;99.90
8676;DHT22;4375;52.486;13.424;2024-02-04T08:43:32;8.00;99.90
8676;DHT22;4375;52.486;13.424;2024-02-04T08:45:58;8.00;99.90
8676;DHT22;4375;52.486;13.424;2024-02-04T08:48:23;8.00;99.90
8676;DHT22;4375;52.486;13.424;2024-02-04T08:50:49;8.10;99.90
8676;DHT22;4375;52.486;13.424;2024-02-04T08:53:15;8.10;99.90
8676;DHT22;4375;52.486;13.424;2024-02-04T08:55:40;8.20;99.90
8676;DHT22;4375;52.486;13.424;2024-02-04T08:58:06;8.20;99.90
8676;DHT22;4375;52.486;13.424;2024-02-04T09:00:31;8.10;99.90
8676;DHT22;4375;52.486;13.424;2024-02-04T09:02:57;8.10;99.90
8676;DHT22;4375;52.486;13.424;2024-02-04T09:05:23;8.10;99.90
8676;DHT22;4375;52.486;13.424;2024-02-04T09:07:48;8.20;99.90
8676;DHT22;4375;52.486;13.424;2024-02-04T09:10:14;8.20;99.90
8676;DHT22;4375;52.486;13.424;2024-02-04T09:12:40;8.20;99.90
8676;DHT22;4375;52.486;13.424;2024-02-04T09:15:06;8.40;99.90
8676;DHT22;4375;52.486;13.424;2024-02-04T09:17:32;8.40;99.90
8676;DHT22;4375;52.486;13.424;2024-02-04T09:20:00;8.40;99.90
8676;DHT22;4375;52.486;13.424;2024-02-04T09:22:26;8.30;99.90
8676;DHT22;4375;52.486;13.424;2024-02-04T09:24:52;8.30;99.90
8676;DHT22;4375;52.486;13.424;2024-02-04T09:27:17;8.40;99.90
8676;DHT22;4375;52.486;13.424;2024-02-04T09:29:43;8.30;99.90
8676;DHT22;4375;52.486;13.424;2024-02-04T09:32:09;8.40;99.90
8676;DHT22;4375;52.486;13.424;2024-02-04T09:34:34;8.40;99.90
8676;DHT22;4375;52.486;13.424;2024-02-04T09:37:00;8.50;99.90
8676;DHT22;4375;52.486;13.424;2024-02-04T09:39:26;8.60;99.90
8676;DHT22;4375;52.486;13.424;2024-02-04T09:41:53;8.70;99.90
8676;DHT22;4375;52.486;13.424;2024-02-04T09:44:19;8.70;99.90
8676;DHT22;4375;52.486;13.424;2024-02-04T09:46:45;8.80;99.90
8676;DHT22;4375;52.486;13.424;2024-02-04T09:49:12;8.80;99.90
8676;DHT22;4375;52.486;13.424;2024-02-04T09:51:40;8.70;99.90
8676;DHT22;4375;52.486;13.424;2024-02-04T09:54:06;8.70;99.90
8676;DHT22;4375;52.486;13.424;2024-02-04T09:56:33;8.80;99.90
8676;DHT22;4375;52.486;13.424;2024-02-04T09:59:00;8.80;99.90
8676;DHT22;4375;52.486;13.424;2024-02-04T10:01:26;8.90;99.90
8676;DHT22;4375;52.486;13.424;2024-02-04T10:03:52;8.90;99.90
8676;DHT22;4375;52.486;13.424;2024-02-04T10:06:17;9.00;99.90
8676;DHT22;4375;52.486;13.424;2024-02-04T10:08:43;8.90;99.90
8676;DHT22;4375;52.486;13.424;2024-02-04T10:11:09;9.00;99.90
8676;DHT22;4375;52.486;13.424;2024-02-04T10:13:46;9.00;99.90
8676;DHT22;4375;52.486;13.424;2024-02-04T10:16:13;9.00;99.90
8676;DHT22;4375;52.486;13.424;2024-02-04T10:18:45;9.00;99.90
8676;DHT22;4375;52.486;13.424;2024-02-04T10:21:21;9.00;99.90
8676;DHT22;4375;52.486;13.424;2024-02-04T10:23:47;9.10;99.90
8676;DHT22;4375;52.486;13.424;2024-02-04T10:26:14;9.10;99.90
8676;DHT22;4375;52.486;13.424;2024-02-04T10:28:40;9.10;99.90
8676;DHT22;4375;52.486;13.424;2024-02-04T10:31:08;9.10;99.90
8676;DHT22;4375;52.486;13.424;2024-02-04T10:33:34;9.10;99.90
8676;DHT22;4375;52.486;13.424;2024-02-04T10:36:00;9.20;99.90
8676;DHT22;4375;52.486;13.424;2024-02-04T10:38:25;9.20;99.90
8676;DHT22;4375;52.486;13.424;2024-02-04T10:40:54;9.20;99.90
8676;DHT22;4375;52.486;13.424;2024-02-04T10:43:21;9.20;99.90
8676;DHT22;4375;52.486;13.424;2024-02-04T10:45:47;9.30;99.90
8676;DHT22;4375;52.486;13.424;2024-02-04T10:48:15;9.30;99.90
8676;DHT22;4375;52.486;13.424;2024-02-04T10:50:46;9.20;99.90
8676;DHT22;4375;52.486;13.424;2024-02-04T10:53:14;9.30;99.90
8676;DHT22;4375;52.486;13.424;2024-02-04T10:55:43;9.30;99.90
8676;DHT22;4375;52.486;13.424;2024-02-04T10:58:12;9.40;99.90
8676;DHT22;4375;52.486;13.424;2024-02-04T11:00:40;9.20;99.90
8676;DHT22;4375;52.486;13.424;2024-02-04T11:03:06;9.30;99.90
8676;DHT22;4375;52.486;13.424;2024-02-04T11:05:32;9.20;99.90
8676;DHT22;4375;52.486;13.424;2024-02-04T11:08:01;9.30;99.90
8676;DHT22;4375;52.486;13.424;2024-02-04T11:10:28;9.30;99.90
8676;DHT22;4375;52.486;13.424;2024-02-04T11:12:54;9.30;99.90
8676;DHT22;4375;52.486;13.424;2024-02-04T11:15:21;9.20;99.90
8676;DHT22;4375;52.486;13.424;2024-02-04T11:18:15;9.30;99.90
8676;DHT22;4375;52.486;13.424;2024-02-04T11:20:51;9.30;99.90
8676;DHT22;4375;52.486;13.424;2024-02-04T11:23:42;9.20;99.90
8676;DHT22;4375;52.486;13.424;2024-02-04T11:26:13;9.20;99.90
8676;DHT22;4375;52.486;13.424;2024-02-04T11:28:39;9.30;99.90
8676;DHT22;4375;52.486;13.424;2024-02-04T11:31:12;9.30;99.90
8676;DHT22;4375;52.486;13.424;2024-02-04T11:33:38;9.30;99.90
8676;DHT22;4375;52.486;13.424;2024-02-04T11:36:04;9.20;99.90
8676;DHT22;4375;52.486;13.424;2024-02-04T11:38:32;9.30;99.90
8676;DHT22;4375;52.486;13.424;2024-02-04T11:40:57;9.40;99.90
8676;DHT22;4375;52.486;13.424;2024-02-04T11:43:23;9.30;99.90
8676;DHT22;4375;52.486;13.424;2024-02-04T11:45:52;9.20;99.90
8676;DHT22;4375;52.486;13.424;2024-02-04T11:48:28;9.20;99.90
8676;DHT22;4375;52.486;13.424;2024-02-04T11:50:54;9.20;99.90
8676;DHT22;4375;52.486;13.424;2024-02-04T11:53:20;9.20;99.90
8676;DHT22;4375;52.486;13.424;2024-02-04T11:55:45;9.30;99.90
8676;DHT22;4375;52.486;13.424;2024-02-04T11:58:12;9.40;99.90
8676;DHT22;4375;52.486;13.424;2024-02-04T12:00:38;9.40;99.90
8676;DHT22;4375;52.486;13.424;2024-02-04T12:03:08;9.50;99.90
8676;DHT22;4375;52.486;13.424;2024-02-04T12:05:37;9.50;99.90
8676;DHT22;4375;52.486;13.424;2024-02-04T12:08:05;9.50;99.90
8676;DHT22;4375;52.486;13.424;2024-02-04T12:10:33;9.40;99.90
8676;DHT22;4375;52.486;13.424;2024-02-04T12:12:59;9.40;99.90
8676;DHT22;4375;52.486;13.424;2024-02-04T12:15:28;9.50;99.90
8676;DHT22;4375;52.486;13.424;2024-02-04T12:17:53;9.60;99.90
8676;DHT22;4375;52.486;13.424;2024-02-04T12:20:19;9.60;99.90
8676;DHT22;4375;52.486;13.424;2024-02-04T12:22:45;9.50;99.90
8676;DHT22;4375;52.486;13.424;2024-02-04T12:25:11;9.50;99.90
8676;DHT22;4375;52.486;13.424;2024-02-04T12:27:37;9.50;99.90
8676;DHT22;4375;52.486;13.424;2024-02-04T12:30:04;9.40;99.90
8676;DHT22;4375;52.486;13.424;2024-02-04T12:32:31;9.40;99.90
8676;DHT22;4375;52.486;13.424;2024-02-04T12:34:56;9.20;99.90
8676;DHT22;4375;52.486;13.424;2024-02-04T12:37:22;9.00;99.90
8676;DHT22;4375;52.486;13.424;2024-02-04T12:39:47;9.00;99.90
8676;DHT22;4375;52.486;13.424;2024-02-04T12:42:16;9.00;99.90
8676;DHT22;4375;52.486;13.424;2024-02-04T12:44:47;8.90;99.90
8676;DHT22;4375;52.486;13.424;2024-02-04T12:47:13;9.00;99.90
8676;DHT22;4375;52.486;13.424;2024-02-04T12:49:40;9.00;99.90
8676;DHT22;4375;52.486;13.424;2024-02-04T12:52:07;9.00;99.90
8676;DHT22;4375;52.486;13.424;2024-02-04T12:54:45;9.10;99.90
8676;DHT22;4375;52.486;13.424;2024-02-04T12:57:22;9.00;99.90
8676;DHT22;4375;52.486;13.424;2024-02-04T12:59:48;9.10;99.90
8676;DHT22;4375;52.486;13.424;2024-02-04T13:02:14;9.00;99.90
8676;DHT22;4375;52.486;13.424;2024-02-04T13:04:41;9.00;99.90
8676;DHT22;4375;52.486;13.424;2024-02-04T13:07:11;9.10;99.90
8676;DHT22;4375;52.486;13.424;2024-02-04T13:09:43;9.10;99.90
8676;DHT22;4375;52.486;13.424;2024-02-04T13:12:10;9.00;99.90
8676;DHT22;4375;52.486;13.424;2024-02-04T13:14:37;9.00;99.90
8676;DHT22;4375;52.486;13.424;2024-02-04T13:17:03;9.00;99.90
8676;DHT22;4375;52.486;13.424;2024-02-04T13:19:36;9.10;99.90
8676;DHT22;4375;52.486;13.424;2024-02-04T13:22:03;9.10;99.90
8676;DHT22;4375;52.486;13.424;2024-02-04T13:24:32;9.10;99.90
8676;DHT22;4375;52.486;13.424;2024-02-04T13:26:59;9.10;99.90
8676;DHT22;4375;52.486;13.424;2024-02-04T13:29:26;9.00;99.90
8676;DHT22;4375;52.486;13.424;2024-02-04T13:31:52;9.00;99.90
8676;DHT22;4375;52.486;13.424;2024-02-04T13:34:17;9.00;99.90
8676;DHT22;4375;52.486;13.424;2024-02-04T13:36:44;9.10;99.90
8676;DHT22;4375;52.486;13.424;2024-02-04T13:39:09;9.00;99.90
8676;DHT22;4375;52.486;13.424;2024-02-04T13:41:41;9.00;99.90
8676;DHT22;4375;52.486;13.424;2024-02-04T13:44:06;9.00;99.90
8676;DHT22;4375;52.486;13.424;2024-02-04T13:46:32;8.90;99.90
8676;DHT22;4375;52.486;13.424;2024-02-04T13:48:58;8.90;99.90
8676;DHT22;4375;52.486;13.424;2024-02-04T13:51:24;8.90;99.90
8676;DHT22;4375;52.486;13.424;2024-02-04T13:53:49;9.00;99.90
8676;DHT22;4375;52.486;13.424;2024-02-04T13:56:15;8.90;99.90
8676;DHT22;4375;52.486;13.424;2024-02-04T13:58:44;9.00;99.90
8676;DHT22;4375;52.486;13.424;2024-02-04T14:01:10;9.00;99.90
8676;DHT22;4375;52.486;13.424;2024-02-04T14:03:36;9.00;99.90
8676;DHT22;4375;52.486;13.424;2024-02-04T14:06:01;8.90;99.90
8676;DHT22;4375;52.486;13.424;2024-02-04T14:08:29;9.00;99.90
8676;DHT22;4375;52.486;13.424;2024-02-04T14:10:55;9.00;99.90
8676;DHT22;4375;52.486;13.424;2024-02-04T14:13:21;8.90;99.90
8676;DHT22;4375;52.486;13.424;2024-02-04T14:15:46;8.90;99.90
8676;DHT22;4375;52.486;13.424;2024-02-04T14:18:12;8.80;99.90
8676;DHT22;4375;52.486;13.424;2024-02-04T14:20:38;8.80;99.90
8676;DHT22;4375;52.486;13.424;2024-02-04T14:23:03;8.90;99.90
8676;DHT22;4375;52.486;13.424;2024-02-04T14:25:29;8.90;99.90
8676;DHT22;4375;52.486;13.424;2024-02-04T14:27:55;9.00;99.90
8676;DHT22;4375;52.486;13.424;2024-02-04T14:30:20;8.90;99.90
8676;DHT22;4375;52.486;13.424;2024-02-04T14:32:46;8.90;99.90
8676;DHT22;4375;52.486;13.424;2024-02-04T14:35:11;8.90;99.90
8676;DHT22;4375;52.486;13.424;2024-02-04T14:37:37;8.90;99.90
8676;DHT22;4375;52.486;13.424;2024-02-04T14:40:05;8.90;99.90
8676;DHT22;4375;52.486;13.424;2024-02-04T14:42:32;8.90;99.90
8676;DHT22;4375;52.486;13.424;2024-02-04T14:44:58;9.00;99.90
8676;DHT22;4375;52.486;13.424;2024-02-04T14:47:26;9.00;99.90
8676;DHT22;4375;52.486;13.424;2024-02-04T14:49:53;8.90;99.90
8676;DHT22;4375;52.486;13.424;2024-02-04T14:52:19;8.90;99.90
8676;DHT22;4375;52.486;13.424;2024-02-04T14:54:44;8.80;99.90
8676;DHT22;4375;52.486;13.424;2024-02-04T14:57:10;8.80;99.90
8676;DHT22;4375;52.486;13.424;2024-02-04T14:59:35;8.80;99.90
8676;DHT22;4375;52.486;13.424;2024-02-04T15:02:03;8.90;99.90
8676;DHT22;4375;52.486;13.424;2024-02-04T15:04:32;8.90;99.90
8676;DHT22;4375;52.486;13.424;2024-02-04T15:06:58;8.80;99.90
8676;DHT22;4375;52.486;13.424;2024-02-04T15:09:24;8.90;99.90
8676;DHT22;4375;52.486;13.424;2024-02-04T15:11:50;8.80;99.90
8676;DHT22;4375;52.486;13.424;2024-02-04T15:14:16;8.80;99.90
8676;DHT22;4375;52.486;13.424;2024-02-04T15:16:45;8.80;99.90
8676;DHT22;4375;52.486;13.424;2024-02-04T15:19:10;8.90;99.90
8676;DHT22;4375;52.486;13.424;2024-02-04T15:21:36;8.90;99.90
8676;DHT22;4375;52.486;13.424;2024-02-04T15:24:02;8.80;99.90
8676;DHT22;4375;52.486;13.424;2024-02-04T15:26:34;8.80;99.90
8676;DHT22;4375;52.486;13.424;2024-02-04T15:29:02;8.80;99.90
8676;DHT22;4375;52.486;13.424;2024-02-04T15:31:29;8.80;99.90
8676;DHT22;4375;52.486;13.424;2024-02-04T15:33:56;8.80;99.90
8676;DHT22;4375;52.486;13.424;2024-02-04T15:36:21;8.80;99.90
8676;DHT22;4375;52.486;13.424;2024-02-04T15:38:47;8.90;99.90
8676;DHT22;4375;52.486;13.424;2024-02-04T15:41:13;8.80;99.90
8676;DHT22;4375;52.486;13.424;2024-02-04T15:43:38;8.80;99.90
8676;DHT22;4375;52.486;13.424;2024-02-04T15:46:08;8.80;99.90
8676;DHT22;4375;52.486;13.424;2024-02-04T15:48:38;8.80;99.90
8676;DHT22;4375;52.486;13.424;2024-02-04T15:51:04;8.80;99.90
8676;DHT22;4375;52.486;13.424;2024-02-04T15:53:31;8.90;99.90
8676;DHT22;4375;52.486;13.424;2024-02-04T15:55:57;8.80;99.90
8676;DHT22;4375;52.486;13.424;2024-02-04T15:58:25;8.80;99.90
8676;DHT22;4375;52.486;13.424;2024-02-04T16:00:52;8.80;99.90
8676;DHT22;4375;52.486;13.424;2024-02-04T16:03:18;8.80;99.90
8676;DHT22;4375;52.486;13.424;2024-02-04T16:05:44;8.80;99.90